Terminal Aerodrome Forecast
Issued by NWS Twin Cities, MN

Home | Current Version | Previous Version | Graphics & Text | Print | Product List | Glossary On
Versions: 1 2 3 4 5 6 7 8 9 10 11 12 13 14 15 16 17 18 19 20 21 22 23 24 25 26
000
FTUS43 KMPX 261700 RRA
TAFMSP
TAF
KMSP 261739Z 2618/2724 35008KT P6SM OVC012
     FM262100 35009KT P6SM OVC019
     FM270300 36009KT 4SM -SN BR OVC012
     FM270400 35009KT 1SM -SN BR VV008
     FM271000 34008KT 3SM -SN BKN012 OVC030
     FM271600 30008KT P6SM BKN020=

USA.gov is the U.S. government's official web portal to all federal, state and local government web resources and services.